Time;durP1;ratioP1;P1;durP2;ratioP2;P2;SDS_P1;SDS_P2;PMS_P1;PMS_P2;Temp;Humidity;BMP_temperature;BMP_pressure;BME280_temperature;BME280_humidity;BME280_pressure;Samples;Min_cycle;Max_cycle;Signal;HPM_P1;HPM_P2
2021/01/13 00:03:21;;;;;;;22.07;8.87;;;;;1.00;101380.00;;;;10400277;28;20211;-78
2021/01/13 00:08:22;;;;;;;17.17;8.33;;;;;0.90;101378.00;;;;10428491;28;20708;-77
2021/01/13 00:13:24;;;;;;;26.33;8.70;;;;;1.00;101375.00;;;;10401299;28;20284;-77
2021/01/13 00:18:25;;;;;;;18.37;9.53;;;;;1.10;101379.00;;;;10415979;28;20183;-77
2021/01/13 00:23:26;;;;;;;20.87;9.40;;;;;1.30;101384.00;;;;10421187;28;20218;-78
2021/01/13 00:28:27;;;;;;;24.70;12.87;;;;;1.30;101382.00;;;;10382575;28;20602;-78
2021/01/13 00:33:29;;;;;;;23.83;10.27;;;;;1.30;101372.00;;;;10431630;28;20195;-77
2021/01/13 00:38:30;;;;;;;18.37;10.53;;;;;1.30;101374.00;;;;10451614;28;20198;-77
2021/01/13 00:43:32;;;;;;;25.07;11.13;;;;;1.30;101376.00;;;;10434012;28;20215;-77
2021/01/13 00:48:33;;;;;;;16.40;9.83;;;;;1.20;101377.00;;;;10421599;28;20210;-77
2021/01/13 00:53:35;;;;;;;20.80;9.97;;;;;1.10;101386.00;;;;10419626;28;20285;-77
2021/01/13 00:58:36;;;;;;;20.23;11.07;;;;;1.00;101381.00;;;;10424232;28;20221;-77
2021/01/13 01:03:39;;;;;;;17.00;10.43;;;;;0.90;101376.00;;;;10393814;28;20685;-77
2021/01/13 01:08:40;;;;;;;23.07;10.53;;;;;0.90;101367.00;;;;10406580;28;20238;-77
2021/01/13 01:13:42;;;;;;;19.40;9.80;;;;;0.90;101379.00;;;;10450398;28;20213;-77
2021/01/13 01:18:44;;;;;;;20.27;10.53;;;;;0.80;101375.00;;;;10415682;28;20225;-77
2021/01/13 01:23:47;;;;;;;21.70;10.50;;;;;0.80;101378.00;;;;10403928;28;20202;-77
2021/01/13 01:28:48;;;;;;;18.63;10.70;;;;;0.80;101385.00;;;;10402265;28;20207;-77
2021/01/13 01:33:50;;;;;;;19.63;10.60;;;;;0.80;101398.00;;;;10411243;28;20269;-77
2021/01/13 01:38:52;;;;;;;18.80;9.43;;;;;0.70;101391.00;;;;10440394;28;20184;-77
2021/01/13 01:43:53;;;;;;;20.77;10.20;;;;;0.60;101390.00;;;;10443974;28;20206;-77
2021/01/13 01:48:57;;;;;;;26.57;12.07;;;;;0.60;101401.00;;;;10419939;28;20211;-77
2021/01/13 01:54:06;;;;;;;18.20;10.53;;;;;0.60;101394.00;;;;10405856;28;20187;-77
2021/01/13 01:59:15;;;;;;;16.40;10.80;;;;;0.60;101388.00;;;;10402377;28;20515;-77
2021/01/13 02:04:31;;;;;;;22.37;11.30;;;;;0.60;101394.00;;;;10407410;28;20194;-77
2021/01/13 02:09:33;;;;;;;20.43;11.43;;;;;0.60;101401.00;;;;10430264;28;20244;-78
2021/01/13 02:14:34;;;;;;;22.43;11.10;;;;;0.60;101403.00;;;;10419187;28;20199;-77
2021/01/13 02:19:48;;;;;;;21.13;11.23;;;;;0.60;101408.00;;;;10422097;28;20665;-77
2021/01/13 02:25:11;;;;;;;20.20;11.27;;;;;0.60;101411.00;;;;10409143;28;20190;-77
2021/01/13 02:30:17;;;;;;;34.53;12.60;;;;;0.60;101412.00;;;;10440918;28;20202;-77
2021/01/13 02:35:23;;;;;;;20.97;11.87;;;;;0.60;101418.00;;;;10393649;28;20194;-78
2021/01/13 02:40:28;;;;;;;22.20;12.03;;;;;0.70;101416.00;;;;10420770;28;20187;-77
2021/01/13 02:45:35;;;;;;;24.93;12.63;;;;;0.60;101413.00;;;;10418792;28;20217;-77
2021/01/13 02:50:53;;;;;;;21.77;12.47;;;;;0.60;101422.00;;;;10407305;28;20219;-77
2021/01/13 02:55:55;;;;;;;30.07;12.47;;;;;0.70;101425.00;;;;10398742;28;20254;-78
2021/01/13 03:00:57;;;;;;;22.73;12.47;;;;;0.60;101423.00;;;;10403422;28;20218;-77
2021/01/13 03:06:09;;;;;;;26.63;11.87;;;;;0.60;101425.00;;;;10419883;28;20647;-77
2021/01/13 03:11:20;;;;;;;20.63;11.53;;;;;0.70;101427.00;;;;10428695;28;20202;-77
2021/01/13 03:16:22;;;;;;;23.53;11.57;;;;;0.60;101426.00;;;;10400707;28;20199;-77
2021/01/13 03:21:31;;;;;;;24.53;13.00;;;;;0.60;101417.00;;;;10428093;28;20199;-77
2021/01/13 03:26:37;;;;;;;26.37;11.73;;;;;0.80;101429.00;;;;10431515;28;20191;-77
2021/01/13 03:31:59;;;;;;;20.23;10.73;;;;;0.90;101430.00;;;;10424639;28;20198;-77
2021/01/13 03:37:23;;;;;;;25.13;12.53;;;;;1.00;101432.00;;;;10423317;28;20194;-77
2021/01/13 03:42:34;;;;;;;22.67;11.77;;;;;1.00;101424.00;;;;10424682;28;20245;-77
2021/01/13 03:47:41;;;;;;;21.93;11.30;;;;;1.00;101414.00;;;;10412848;28;20199;-77
2021/01/13 03:53:03;;;;;;;22.60;11.17;;;;;1.00;101424.00;;;;10429667;28;20198;-77
2021/01/13 03:58:24;;;;;;;30.23;10.53;;;;;1.00;101427.00;;;;10412902;28;20251;-77
2021/01/13 04:03:30;;;;;;;17.93;11.00;;;;;1.00;101426.00;;;;10421002;28;20270;-77
2021/01/13 04:08:43;;;;;;;22.57;11.43;;;;;1.00;101416.00;;;;10448767;28;20210;-77
2021/01/13 04:13:46;;;;;;;24.60;12.30;;;;;1.10;101426.00;;;;10426454;28;20206;-77
2021/01/13 04:18:49;;;;;;;31.00;11.87;;;;;1.20;101417.00;;;;10392523;28;20688;-77
2021/01/13 04:23:56;;;;;;;21.83;11.23;;;;;1.30;101421.00;;;;10395865;28;20594;-77
2021/01/13 04:28:58;;;;;;;20.27;9.47;;;;;1.40;101421.00;;;;10438856;28;20238;-77
2021/01/13 04:34:02;;;;;;;16.90;9.70;;;;;1.40;101401.00;;;;10410234;28;20202;-78
2021/01/13 04:39:03;;;;;;;22.17;10.87;;;;;1.30;101399.00;;;;10426689;28;20216;-77
2021/01/13 04:44:13;;;;;;;15.77;9.43;;;;;1.30;101408.00;;;;10432817;28;20260;-78
2021/01/13 04:49:19;;;;;;;27.67;8.40;;;;;1.30;101401.00;;;;10455903;28;20250;-77
2021/01/13 04:54:21;;;;;;;20.37;10.10;;;;;1.30;101408.00;;;;10423542;28;20210;-78
2021/01/13 04:59:41;;;;;;;17.27;9.70;;;;;1.20;101393.00;;;;10424579;28;20261;-77
2021/01/13 05:05:04;;;;;;;23.53;11.43;;;;;1.20;101400.00;;;;10420352;28;20261;-77
2021/01/13 05:10:13;;;;;;;19.20;11.00;;;;;1.30;101402.00;;;;10406550;28;20666;-77
2021/01/13 05:15:20;;;;;;;21.77;10.97;;;;;1.30;101398.00;;;;10416565;28;20202;-78
2021/01/13 05:20:24;;;;;;;23.30;11.60;;;;;1.30;101407.00;;;;10423406;28;20194;-77
2021/01/13 05:25:40;;;;;;;15.67;10.87;;;;;1.30;101411.00;;;;10429358;28;20246;-77
2021/01/13 05:30:46;;;;;;;18.83;11.80;;;;;1.30;101407.00;;;;10436800;28;20216;-77
2021/01/13 05:35:55;;;;;;;21.37;12.87;;;;;1.30;101393.00;;;;10420069;28;20194;-78
2021/01/13 05:40:56;;;;;;;25.13;13.17;;;;;1.30;101393.00;;;;10413929;28;20193;-78
2021/01/13 05:46:08;;;;;;;26.73;13.20;;;;;1.30;101378.00;;;;10425479;28;20214;-77
2021/01/13 05:51:10;;;;;;;16.40;11.77;;;;;1.20;101370.00;;;;10406021;28;20234;-77
2021/01/13 05:56:16;;;;;;;28.37;13.40;;;;;1.30;101370.00;;;;10441804;28;20198;-78
2021/01/13 06:01:43;;;;;;;27.27;14.57;;;;;1.30;101361.00;;;;10425601;28;20225;-78
2021/01/13 06:06:57;;;;;;;24.30;14.57;;;;;1.30;101371.00;;;;10419328;28;20228;-78
2021/01/13 06:12:02;;;;;;;24.37;13.37;;;;;1.40;101369.00;;;;10446858;28;20207;-77
2021/01/13 06:17:05;;;;;;;27.53;14.23;;;;;1.40;101375.00;;;;10415992;28;20191;-77
2021/01/13 06:22:10;;;;;;;29.50;15.50;;;;;1.40;101363.00;;;;10421185;28;20651;-77
2021/01/13 06:27:22;;;;;;;21.27;13.63;;;;;1.40;101357.00;;;;10390229;28;20207;-77
2021/01/13 06:32:31;;;;;;;27.17;15.67;;;;;1.40;101359.00;;;;10408715;28;20573;-78
2021/01/13 06:37:46;;;;;;;27.83;15.90;;;;;1.40;101374.00;;;;10407997;28;20206;-78
2021/01/13 06:42:48;;;;;;;34.23;16.60;;;;;1.40;101379.00;;;;10409340;28;20209;-77
2021/01/13 06:47:54;;;;;;;27.00;15.10;;;;;1.50;101372.00;;;;10431089;28;20194;-78
2021/01/13 06:52:57;;;;;;;25.47;13.90;;;;;1.50;101375.00;;;;10410014;28;20242;-77
2021/01/13 06:58:07;;;;;;;22.33;14.97;;;;;1.50;101372.00;;;;10421730;28;20590;-78
2021/01/13 07:03:27;;;;;;;23.53;13.77;;;;;1.60;101375.00;;;;10415128;28;20199;-78
2021/01/13 07:08:29;;;;;;;22.67;13.47;;;;;1.70;101384.00;;;;10425986;28;20208;-78
2021/01/13 07:13:36;;;;;;;26.57;13.30;;;;;1.70;101376.00;;;;10461623;28;20617;-78
2021/01/13 07:18:38;;;;;;;22.90;13.93;;;;;1.70;101381.00;;;;10439474;28;20209;-77
2021/01/13 07:23:42;;;;;;;30.47;15.43;;;;;1.70;101373.00;;;;10429414;28;20197;-78
2021/01/13 07:28:43;;;;;;;31.17;15.23;;;;;1.80;101366.00;;;;10436482;28;20206;-78
2021/01/13 07:33:47;;;;;;;26.57;14.33;;;;;1.80;101371.00;;;;10441454;28;20220;-78
2021/01/13 07:38:55;;;;;;;28.73;15.47;;;;;1.90;101370.00;;;;10446146;28;20593;-78
2021/01/13 07:44:03;;;;;;;25.13;14.00;;;;;1.90;101381.00;;;;10427669;28;20851;-78
2021/01/13 07:49:16;;;;;;;22.87;12.47;;;;;2.00;101384.00;;;;10430450;28;20218;-78
2021/01/13 07:54:27;;;;;;;26.73;12.67;;;;;2.00;101380.00;;;;10412456;28;20549;-78
2021/01/13 07:59:37;;;;;;;23.43;13.93;;;;;2.00;101401.00;;;;10449246;28;20242;-78
2021/01/13 08:05:16;;;;;;;27.70;13.90;;;;;2.00;101380.00;;;;10403244;28;20202;-78
2021/01/13 08:10:18;;;;;;;22.00;14.13;;;;;2.10;101402.00;;;;10392496;28;20901;-77
2021/01/13 08:15:47;;;;;;;29.27;14.97;;;;;2.20;101381.00;;;;10421233;28;20210;-78
2021/01/13 08:21:16;;;;;;;32.17;14.27;;;;;2.20;101373.00;;;;10455815;28;20266;-78
2021/01/13 08:26:19;;;;;;;26.60;12.63;;;;;2.30;101372.00;;;;10414390;28;20198;-78
2021/01/13 08:31:23;;;;;;;22.80;13.93;;;;;2.40;101393.00;;;;10433191;28;20218;-77
2021/01/13 08:36:26;;;;;;;26.73;14.43;;;;;2.50;101378.00;;;;10415709;28;20183;-77
2021/01/13 08:41:28;;;;;;;32.80;14.57;;;;;2.60;101380.00;;;;10436447;28;20186;-77
2021/01/13 08:46:46;;;;;;;31.77;18.23;;;;;2.70;101379.00;;;;10418354;28;20267;-77
2021/01/13 08:52:14;;;;;;;27.50;17.47;;;;;2.80;101385.00;;;;10402555;28;20206;-78
2021/01/13 08:57:16;;;;;;;40.53;18.00;;;;;2.90;101383.00;;;;10415551;28;20197;-77
2021/01/13 09:02:23;;;;;;;31.00;16.80;;;;;3.10;101378.00;;;;10405534;28;20277;-77
2021/01/13 09:07:31;;;;;;;25.53;15.27;;;;;3.20;101376.00;;;;10417075;28;20254;-77
2021/01/13 09:12:43;;;;;;;30.40;17.13;;;;;3.40;101368.00;;;;10421393;28;20669;-78
2021/01/13 09:17:50;;;;;;;27.13;13.47;;;;;3.50;101362.00;;;;10414186;28;20277;-77
2021/01/13 09:23:03;;;;;;;27.53;15.90;;;;;3.60;101375.00;;;;10417588;28;20659;-77
2021/01/13 09:28:15;;;;;;;30.13;15.03;;;;;3.70;101369.00;;;;10415559;28;20298;-77
2021/01/13 09:33:19;;;;;;;28.50;14.77;;;;;3.80;101369.00;;;;10405418;28;20206;-77
2021/01/13 09:38:34;;;;;;;27.30;13.23;;;;;3.90;101373.00;;;;10406302;28;20190;-77
2021/01/13 09:43:41;;;;;;;30.83;17.40;;;;;4.10;101364.00;;;;10434576;28;20256;-77
2021/01/13 09:48:56;;;;;;;36.80;18.73;;;;;4.20;101361.00;;;;10414400;28;20505;-77
2021/01/13 09:53:59;;;;;;;38.83;22.17;;;;;4.40;101358.00;;;;10426165;28;20657;-77
2021/01/13 09:59:07;;;;;;;31.73;14.33;;;;;4.50;101349.00;;;;10429391;28;20757;-77
2021/01/13 10:04:11;;;;;;;24.73;11.67;;;;;4.70;101335.00;;;;10428762;28;20190;-77
2021/01/13 10:09:17;;;;;;;23.80;9.30;;;;;4.80;101348.00;;;;10397066;28;20214;-77
2021/01/13 10:14:21;;;;;;;19.30;8.73;;;;;4.90;101359.00;;;;10431878;28;20194;-77
2021/01/13 10:19:27;;;;;;;18.00;8.27;;;;;5.00;101345.00;;;;10426410;28;20206;-78
2021/01/13 10:24:30;;;;;;;15.37;8.03;;;;;5.10;101336.00;;;;10372133;28;20261;-78
2021/01/13 10:29:32;;;;;;;20.20;8.83;;;;;5.50;101333.00;;;;10424908;28;20563;-77
2021/01/13 10:34:33;;;;;;;22.53;7.77;;;;;6.10;101325.00;;;;10388858;28;20554;-78
2021/01/13 10:39:34;;;;;;;17.50;7.30;;;;;6.90;101305.00;;;;10434626;28;20190;-78
2021/01/13 10:44:36;;;;;;;11.97;7.13;;;;;6.90;101297.00;;;;10423985;28;20218;-78
2021/01/13 10:49:46;;;;;;;15.53;8.33;;;;;6.80;101303.00;;;;10456804;28;20669;-77
2021/01/13 10:54:54;;;;;;;20.67;9.13;;;;;7.10;101288.00;;;;10424620;28;20205;-77
2021/01/13 11:00:11;;;;;;;21.50;9.13;;;;;7.30;101302.00;;;;10413577;28;20197;-78
2021/01/13 11:05:14;;;;;;;16.83;7.33;;;;;7.30;101305.00;;;;10437558;28;20221;-77
2021/01/13 11:10:17;;;;;;;15.63;9.30;;;;;7.40;101306.00;;;;10419372;28;20210;-78
2021/01/13 11:15:19;;;;;;;12.70;6.83;;;;;7.60;101298.00;;;;10437723;28;20968;-78
2021/01/13 11:20:23;;;;;;;20.07;8.23;;;;;7.60;101303.00;;;;10451267;28;20194;-78
2021/01/13 11:25:30;;;;;;;9.50;6.90;;;;;7.30;101284.00;;;;10392313;28;20191;-78
2021/01/13 11:30:39;;;;;;;17.43;7.53;;;;;7.60;101253.00;;;;10421437;28;20743;-77
2021/01/13 11:35:53;;;;;;;9.27;6.23;;;;;7.80;101258.00;;;;10439791;28;20255;-77
2021/01/13 11:41:33;;;;;;;11.97;7.20;;;;;8.00;101244.00;;;;10409552;28;20187;-78
2021/01/13 11:46:43;;;;;;;14.50;7.20;;;;;8.00;101229.00;;;;10420272;28;20218;-78
2021/01/13 11:51:51;;;;;;;13.13;6.87;;;;;8.00;101224.00;;;;10425151;28;20554;-77
2021/01/13 11:56:54;;;;;;;12.07;6.77;;;;;7.90;101212.00;;;;10426254;28;20204;-78
2021/01/13 12:01:59;;;;;;;12.33;6.13;;;;;7.80;101214.00;;;;10425915;28;20280;-77
2021/01/13 12:07:02;;;;;;;10.20;5.23;;;;;8.10;101208.00;;;;10407064;28;20289;-78
2021/01/13 12:12:05;;;;;;;15.17;7.13;;;;;7.60;101198.00;;;;10452299;28;20212;-77
2021/01/13 12:17:07;;;;;;;12.17;6.27;;;;;7.10;101194.00;;;;10434644;28;20187;-78
2021/01/13 12:22:08;;;;;;;13.73;7.83;;;;;7.00;101182.00;;;;10410745;28;20187;-78
2021/01/13 12:27:25;;;;;;;13.07;8.00;;;;;7.40;101178.00;;;;10392094;28;20191;-78
2021/01/13 12:32:26;;;;;;;12.20;7.40;;;;;7.30;101185.00;;;;10378074;28;20206;-78
2021/01/13 12:37:28;;;;;;;14.73;6.87;;;;;7.30;101171.00;;;;10444740;28;20198;-77
2021/01/13 12:42:33;;;;;;;12.27;6.83;;;;;7.50;101159.00;;;;10408780;28;20212;-78
2021/01/13 12:47:35;;;;;;;9.93;6.67;;;;;7.60;101162.00;;;;10413405;28;20222;-78
2021/01/13 12:52:36;;;;;;;9.80;6.57;;;;;7.50;101163.00;;;;10437639;28;20627;-78
2021/01/13 12:57:37;;;;;;;11.80;7.17;;;;;7.30;101155.00;;;;10435389;28;20244;-78
2021/01/13 13:02:40;;;;;;;13.57;7.33;;;;;7.10;101142.00;;;;10418854;28;20245;-77
2021/01/13 13:07:41;;;;;;;12.67;6.87;;;;;7.10;101148.00;;;;10437976;28;20205;-77
2021/01/13 13:12:42;;;;;;;10.90;7.63;;;;;7.00;101143.00;;;;10402206;28;20590;-77
2021/01/13 13:17:44;;;;;;;11.63;7.40;;;;;7.10;101137.00;;;;10427250;28;20286;-77
2021/01/13 13:22:46;;;;;;;12.77;6.90;;;;;7.00;101129.00;;;;10399202;28;20253;-77
2021/01/13 13:27:47;;;;;;;11.50;7.43;;;;;6.80;101125.00;;;;10426689;28;20198;-78
2021/01/13 13:32:48;;;;;;;12.27;7.37;;;;;6.60;101133.00;;;;10420247;28;20217;-77
2021/01/13 13:37:52;;;;;;;13.23;8.70;;;;;6.40;101116.00;;;;10423457;28;20217;-77
2021/01/13 13:42:55;;;;;;;16.47;8.90;;;;;6.40;101119.00;;;;10433084;28;20245;-77
2021/01/13 13:47:57;;;;;;;15.10;10.10;;;;;6.30;101119.00;;;;10391034;28;20241;-77
2021/01/13 13:52:58;;;;;;;17.00;10.23;;;;;6.20;101119.00;;;;10398999;28;20266;-77
2021/01/13 13:58:02;;;;;;;17.23;9.73;;;;;6.10;101138.00;;;;10419005;28;20195;-77
2021/01/13 14:03:10;;;;;;;16.93;10.90;;;;;6.00;101123.00;;;;10436898;28;20194;-77
2021/01/13 14:08:11;;;;;;;20.27;11.97;;;;;6.00;101122.00;;;;10411243;28;20218;-77
2021/01/13 14:13:13;;;;;;;19.57;11.60;;;;;6.00;101108.00;;;;10421041;28;20654;-77
2021/01/13 14:18:17;;;;;;;17.87;12.13;;;;;6.00;101102.00;;;;10401839;28;20191;-77
2021/01/13 14:23:20;;;;;;;16.57;11.13;;;;;5.90;101091.00;;;;10390945;28;20201;-77
2021/01/13 14:28:22;;;;;;;20.90;12.87;;;;;5.90;101100.00;;;;10427703;28;20192;-77
2021/01/13 14:33:23;;;;;;;24.07;13.00;;;;;5.90;101085.00;;;;10401409;28;20206;-77
2021/01/13 14:38:28;;;;;;;22.87;11.93;;;;;5.80;101085.00;;;;10445425;28;20237;-77
2021/01/13 14:43:29;;;;;;;22.67;14.47;;;;;5.70;101074.00;;;;10421411;28;20616;-77
2021/01/13 14:48:30;;;;;;;22.63;13.10;;;;;5.60;101085.00;;;;10454967;28;20233;-76
2021/01/13 14:53:31;;;;;;;20.20;12.83;;;;;5.60;101060.00;;;;10421339;28;20194;-77
2021/01/13 14:58:34;;;;;;;28.20;14.10;;;;;5.60;101072.00;;;;10426894;28;20194;-76
2021/01/13 15:03:36;;;;;;;26.70;13.77;;;;;5.60;101084.00;;;;10427867;28;20205;-77
2021/01/13 15:08:38;;;;;;;24.63;14.27;;;;;5.50;101092.00;;;;10424192;28;20214;-77
2021/01/13 15:13:39;;;;;;;21.90;13.77;;;;;5.50;101089.00;;;;10453550;28;20194;-77
2021/01/13 15:18:41;;;;;;;25.50;15.07;;;;;5.40;101094.00;;;;10426451;28;20191;-77
2021/01/13 15:23:45;;;;;;;24.57;14.90;;;;;5.40;101078.00;;;;10398292;28;20195;-77
2021/01/13 15:28:46;;;;;;;22.07;14.73;;;;;5.30;101090.00;;;;10437139;28;20233;-77
2021/01/13 15:33:48;;;;;;;30.97;17.07;;;;;5.30;101080.00;;;;10389521;28;20729;-76
2021/01/13 15:38:49;;;;;;;28.97;17.20;;;;;5.30;101066.00;;;;10378779;28;20202;-77
2021/01/13 15:43:54;;;;;;;24.43;16.43;;;;;5.20;101059.00;;;;10431534;28;20248;-77
2021/01/13 15:48:57;;;;;;;25.77;18.33;;;;;5.10;101070.00;;;;10423763;28;20272;-76
2021/01/13 15:53:58;;;;;;;27.83;18.60;;;;;5.10;101062.00;;;;10416949;28;20248;-77
2021/01/13 15:59:05;;;;;;;28.83;19.10;;;;;5.10;101073.00;;;;10430859;28;20595;-77
2021/01/13 16:04:07;;;;;;;32.50;19.47;;;;;5.10;101080.00;;;;10426436;28;20202;-77
2021/01/13 16:09:08;;;;;;;28.73;19.40;;;;;5.00;101090.00;;;;10423974;28;20207;-77
2021/01/13 16:14:14;;;;;;;31.13;20.00;;;;;5.00;101081.00;;;;10408939;28;20218;-77
2021/01/13 16:19:16;;;;;;;31.10;20.23;;;;;5.00;101087.00;;;;10441076;28;20186;-77
2021/01/13 16:24:18;;;;;;;33.30;19.87;;;;;5.00;101085.00;;;;10416299;28;20261;-77
2021/01/13 16:29:19;;;;;;;36.17;22.70;;;;;5.00;101091.00;;;;10433972;28;20241;-77
2021/01/13 16:34:21;;;;;;;40.60;22.90;;;;;4.90;101072.00;;;;10429971;28;20194;-77
2021/01/13 16:39:41;;;;;;;55.13;26.67;;;;;4.90;101083.00;;;;10415452;28;20656;-77
2021/01/13 16:44:43;;;;;;;43.63;27.23;;;;;4.90;101087.00;;;;10402668;28;20256;-77
2021/01/13 16:49:44;;;;;;;41.90;25.13;;;;;4.90;101089.00;;;;10414850;28;20254;-77
2021/01/13 16:54:46;;;;;;;49.47;25.20;;;;;4.90;101095.00;;;;10425578;28;20590;-77
2021/01/13 17:00:06;;;;;;;46.57;24.37;;;;;4.90;101084.00;;;;10428172;28;20202;-77
2021/01/13 17:05:11;;;;;;;43.63;23.17;;;;;4.90;101075.00;;;;10411023;28;20226;-77
2021/01/13 17:10:19;;;;;;;44.70;25.40;;;;;4.90;101079.00;;;;10402010;28;20208;-77
2021/01/13 17:15:21;;;;;;;42.33;23.43;;;;;4.90;101080.00;;;;10373549;28;20199;-77
2021/01/13 17:20:22;;;;;;;50.07;24.27;;;;;4.90;101080.00;;;;10427593;28;20955;-77
2021/01/13 17:25:25;;;;;;;42.57;24.03;;;;;4.90;101079.00;;;;10437305;28;20186;-77
2021/01/13 17:30:28;;;;;;;48.03;24.53;;;;;4.90;101081.00;;;;10434566;28;20206;-77
2021/01/13 17:35:31;;;;;;;47.13;23.97;;;;;4.90;101072.00;;;;10384017;28;20186;-77
2021/01/13 17:40:32;;;;;;;38.20;22.27;;;;;4.90;101074.00;;;;10436625;28;20201;-77
2021/01/13 17:45:34;;;;;;;43.43;22.73;;;;;4.90;101074.00;;;;10395813;28;20256;-78
2021/01/13 17:50:40;;;;;;;39.63;22.57;;;;;4.80;101080.00;;;;10416141;28;20550;-78
2021/01/13 17:55:43;;;;;;;36.90;22.40;;;;;4.80;101090.00;;;;10404331;28;20253;-78
2021/01/13 18:00:46;;;;;;;41.60;21.50;;;;;4.80;101087.00;;;;10432071;28;20207;-78
2021/01/13 18:06:00;;;;;;;41.30;21.60;;;;;4.80;101077.00;;;;10411314;28;20218;-78
2021/01/13 18:11:03;;;;;;;41.20;22.70;;;;;4.80;101073.00;;;;10402153;28;20260;-77
2021/01/13 18:16:05;;;;;;;41.43;21.70;;;;;4.80;101063.00;;;;10424962;28;20195;-78
2021/01/13 18:21:06;;;;;;;42.63;22.03;;;;;4.80;101079.00;;;;10424157;28;20218;-78
2021/01/13 18:26:08;;;;;;;40.40;20.10;;;;;4.80;101068.00;;;;10408677;28;20190;-77
2021/01/13 18:31:09;;;;;;;42.43;22.70;;;;;4.80;101083.00;;;;10421513;28;20283;-78
2021/01/13 18:36:10;;;;;;;47.03;23.67;;;;;4.80;101090.00;;;;10412071;28;20191;-78
2021/01/13 18:41:12;;;;;;;46.47;24.53;;;;;4.80;101109.00;;;;10398001;28;20187;-77
2021/01/13 18:46:13;;;;;;;50.20;23.27;;;;;4.80;101122.00;;;;10445532;28;20214;-77
2021/01/13 18:51:14;;;;;;;42.23;23.20;;;;;4.80;101134.00;;;;10403352;28;20210;-78
2021/01/13 18:56:19;;;;;;;47.90;24.67;;;;;4.80;101119.00;;;;10415807;28;20195;-77
2021/01/13 19:01:21;;;;;;;48.90;24.53;;;;;4.80;101101.00;;;;10416363;28;20206;-78
2021/01/13 19:06:30;;;;;;;49.87;26.07;;;;;4.80;101099.00;;;;10407242;28;20194;-78
2021/01/13 19:11:36;;;;;;;42.23;22.07;;;;;4.80;101109.00;;;;10400780;28;20195;-77
2021/01/13 19:16:37;;;;;;;49.07;23.80;;;;;4.80;101118.00;;;;10378569;28;20264;-77
2021/01/13 19:21:39;;;;;;;51.73;26.67;;;;;4.80;101131.00;;;;10411319;28;20245;-77
2021/01/13 19:26:40;;;;;;;48.67;26.47;;;;;4.80;101125.00;;;;10398559;28;20223;-77
2021/01/13 19:31:41;;;;;;;50.67;24.87;;;;;4.80;101120.00;;;;10384628;28;20257;-77
2021/01/13 19:36:44;;;;;;;49.43;26.50;;;;;4.70;101132.00;;;;10413218;28;20241;-77
2021/01/13 19:41:46;;;;;;;48.37;24.97;;;;;4.70;101120.00;;;;10395981;28;20274;-77
2021/01/13 19:46:49;;;;;;;46.60;26.03;;;;;4.80;101122.00;;;;10395956;28;20686;-77
2021/01/13 19:51:50;;;;;;;50.17;26.97;;;;;4.80;101133.00;;;;10413725;28;20210;-77
2021/01/13 19:56:52;;;;;;;53.20;26.77;;;;;4.80;101132.00;;;;10413375;28;20199;-77
2021/01/13 20:01:53;;;;;;;51.00;26.13;;;;;4.80;101141.00;;;;10427687;28;20582;-77
2021/01/13 20:06:54;;;;;;;48.97;26.00;;;;;4.80;101149.00;;;;10427219;28;20205;-77
2021/01/13 20:11:56;;;;;;;51.17;27.00;;;;;4.80;101160.00;;;;10421503;28;20539;-77
2021/01/13 20:16:58;;;;;;;50.50;26.20;;;;;4.80;101176.00;;;;10429670;28;20232;-77
2021/01/13 20:21:59;;;;;;;52.77;26.27;;;;;4.80;101179.00;;;;10420812;28;20191;-77
2021/01/13 20:27:02;;;;;;;40.57;23.60;;;;;4.80;101174.00;;;;10438691;28;20218;-77
2021/01/13 20:32:04;;;;;;;38.67;23.33;;;;;4.80;101193.00;;;;10435107;28;20205;-77
2021/01/13 20:37:08;;;;;;;46.97;25.77;;;;;4.80;101189.00;;;;10453752;28;20273;-77
2021/01/13 20:42:19;;;;;;;52.73;28.83;;;;;4.80;101196.00;;;;10424211;28;20198;-77
2021/01/13 20:47:20;;;;;;;49.77;26.87;;;;;4.70;101196.00;;;;10419218;28;20203;-77
2021/01/13 20:52:22;;;;;;;56.57;31.10;;;;;4.70;101189.00;;;;10442503;28;20210;-78
2021/01/13 20:57:23;;;;;;;48.60;31.37;;;;;4.70;101199.00;;;;10409643;28;20217;-78
2021/01/13 21:02:24;;;;;;;45.03;26.77;;;;;4.70;101193.00;;;;10423753;28;20202;-77
2021/01/13 21:07:26;;;;;;;55.90;29.93;;;;;4.70;101200.00;;;;10425550;28;20190;-78
2021/01/13 21:12:27;;;;;;;47.83;27.97;;;;;4.70;101209.00;;;;10426369;28;20210;-77
2021/01/13 21:17:28;;;;;;;45.60;26.23;;;;;4.60;101205.00;;;;10440061;28;20208;-77
2021/01/13 21:22:30;;;;;;;46.40;26.17;;;;;4.60;101200.00;;;;10419962;28;20205;-77
2021/01/13 21:27:31;;;;;;;40.40;23.63;;;;;4.60;101216.00;;;;10422904;28;20562;-77
2021/01/13 21:32:34;;;;;;;44.53;25.10;;;;;4.50;101222.00;;;;10435372;28;20619;-77
2021/01/13 21:37:37;;;;;;;38.30;22.10;;;;;4.50;101220.00;;;;10433772;28;20194;-77
2021/01/13 21:42:39;;;;;;;38.27;21.63;;;;;4.40;101226.00;;;;10435957;28;20210;-77
2021/01/13 21:47:40;;;;;;;30.30;17.50;;;;;4.40;101230.00;;;;10435910;28;20194;-77
2021/01/13 21:52:42;;;;;;;27.70;14.53;;;;;4.30;101245.00;;;;10426039;28;20211;-77
2021/01/13 21:57:43;;;;;;;19.73;12.30;;;;;4.30;101238.00;;;;10433590;28;20259;-77
2021/01/13 22:02:44;;;;;;;19.53;11.57;;;;;4.20;101245.00;;;;10471845;28;20194;-77
2021/01/13 22:07:46;;;;;;;19.57;10.17;;;;;4.10;101246.00;;;;10420900;28;20198;-77
2021/01/13 22:12:56;;;;;;;17.43;9.70;;;;;4.10;101248.00;;;;10457261;28;20695;-77
2021/01/13 22:17:58;;;;;;;27.07;11.57;;;;;4.10;101254.00;;;;10403176;28;20202;-77
2021/01/13 22:22:59;;;;;;;16.27;8.90;;;;;4.00;101255.00;;;;10413781;28;20280;-77
2021/01/13 22:28:03;;;;;;;12.40;8.10;;;;;4.00;101246.00;;;;10418544;28;20201;-77
2021/01/13 22:33:04;;;;;;;12.83;6.80;;;;;3.90;101254.00;;;;10447437;28;20229;-77
2021/01/13 22:38:05;;;;;;;11.27;6.60;;;;;3.90;101261.00;;;;10424473;28;20202;-77
2021/01/13 22:43:07;;;;;;;11.90;6.17;;;;;3.90;101270.00;;;;10429481;28;20630;-77
2021/01/13 22:48:08;;;;;;;10.77;5.67;;;;;3.90;101275.00;;;;10448132;28;20679;-77
2021/01/13 22:53:10;;;;;;;11.80;6.40;;;;;3.90;101275.00;;;;10424036;28;20294;-77
2021/01/13 22:58:11;;;;;;;6.90;5.03;;;;;3.90;101281.00;;;;10461591;28;20539;-77
2021/01/13 23:03:16;;;;;;;9.70;5.03;;;;;3.80;101290.00;;;;10443284;28;20202;-77
2021/01/13 23:08:17;;;;;;;9.40;4.43;;;;;3.90;101296.00;;;;10448025;28;20601;-77
2021/01/13 23:13:19;;;;;;;9.27;4.83;;;;;3.80;101307.00;;;;10419491;28;20201;-77
2021/01/13 23:18:20;;;;;;;8.87;5.47;;;;;3.80;101304.00;;;;10444859;28;20197;-77
2021/01/13 23:23:22;;;;;;;10.77;5.30;;;;;3.80;101286.00;;;;10443205;28;20585;-77
2021/01/13 23:28:26;;;;;;;10.37;4.83;;;;;3.80;101279.00;;;;10426393;28;20221;-77
2021/01/13 23:33:27;;;;;;;8.37;5.00;;;;;3.80;101288.00;;;;10442670;28;20262;-77
2021/01/13 23:38:28;;;;;;;7.23;4.27;;;;;3.80;101294.00;;;;10442885;28;20202;-77
2021/01/13 23:43:30;;;;;;;10.83;4.93;;;;;3.80;101296.00;;;;10442429;28;20687;-77
2021/01/13 23:48:32;;;;;;;9.37;4.67;;;;;3.90;101299.00;;;;10424734;28;20198;-77
2021/01/13 23:53:33;;;;;;;11.20;5.50;;;;;3.80;101296.00;;;;10421895;28;20257;-77
2021/01/13 23:58:34;;;;;;;10.93;5.33;;;;;3.80;101287.00;;;;10454835;28;20202;-77
